sensor_id;sensor_type;location;lat;lon;timestamp;temperature;humidity
12268;DHT22;6196;48.398;11.736;2023-05-07T00:01:51;11.90;99.90
12268;DHT22;6196;48.398;11.736;2023-05-07T00:04:18;11.90;99.90
12268;DHT22;6196;48.398;11.736;2023-05-07T00:06:45;11.80;99.90
12268;DHT22;6196;48.398;11.736;2023-05-07T00:09:12;11.80;99.90
12268;DHT22;6196;48.398;11.736;2023-05-07T00:11:39;11.70;99.90
12268;DHT22;6196;48.398;11.736;2023-05-07T00:14:06;11.60;99.90
12268;DHT22;6196;48.398;11.736;2023-05-07T00:16:33;11.60;99.90
12268;DHT22;6196;48.398;11.736;2023-05-07T00:19:00;11.50;99.90
12268;DHT22;6196;48.398;11.736;2023-05-07T00:21:27;11.30;99.90
12268;DHT22;6196;48.398;11.736;2023-05-07T00:23:54;11.30;99.90
12268;DHT22;6196;48.398;11.736;2023-05-07T00:26:22;11.30;99.90
12268;DHT22;6196;48.398;11.736;2023-05-07T00:28:48;11.40;99.90
12268;DHT22;6196;48.398;11.736;2023-05-07T00:31:15;11.40;99.90
12268;DHT22;6196;48.398;11.736;2023-05-07T00:33:42;11.40;99.90
12268;DHT22;6196;48.398;11.736;2023-05-07T00:36:09;11.30;99.90
12268;DHT22;6196;48.398;11.736;2023-05-07T00:38:36;11.30;99.90
12268;DHT22;6196;48.398;11.736;2023-05-07T00:41:03;11.30;99.90
12268;DHT22;6196;48.398;11.736;2023-05-07T00:43:30;11.30;99.90
12268;DHT22;6196;48.398;11.736;2023-05-07T00:45:58;11.20;99.90
12268;DHT22;6196;48.398;11.736;2023-05-07T00:48:25;11.30;99.90
12268;DHT22;6196;48.398;11.736;2023-05-07T00:50:53;11.30;99.90
12268;DHT22;6196;48.398;11.736;2023-05-07T00:53:20;11.30;99.90
12268;DHT22;6196;48.398;11.736;2023-05-07T00:55:47;11.40;99.90
12268;DHT22;6196;48.398;11.736;2023-05-07T00:58:14;11.30;99.90
12268;DHT22;6196;48.398;11.736;2023-05-07T01:00:42;11.30;99.90
12268;DHT22;6196;48.398;11.736;2023-05-07T01:03:09;11.30;99.90
12268;DHT22;6196;48.398;11.736;2023-05-07T01:05:36;11.40;99.90
12268;DHT22;6196;48.398;11.736;2023-05-07T01:08:04;11.40;99.90
12268;DHT22;6196;48.398;11.736;2023-05-07T01:10:31;11.50;99.90
12268;DHT22;6196;48.398;11.736;2023-05-07T01:12:59;11.50;99.90
12268;DHT22;6196;48.398;11.736;2023-05-07T01:15:27;11.40;99.90
12268;DHT22;6196;48.398;11.736;2023-05-07T01:17:54;11.50;99.90
12268;DHT22;6196;48.398;11.736;2023-05-07T01:20:22;11.50;99.90
12268;DHT22;6196;48.398;11.736;2023-05-07T01:22:50;11.40;99.90
12268;DHT22;6196;48.398;11.736;2023-05-07T01:25:17;11.30;99.90
12268;DHT22;6196;48.398;11.736;2023-05-07T01:27:44;11.30;99.90
12268;DHT22;6196;48.398;11.736;2023-05-07T01:30:11;11.30;99.90
12268;DHT22;6196;48.398;11.736;2023-05-07T01:35:32;11.20;99.90
12268;DHT22;6196;48.398;11.736;2023-05-07T01:38:02;11.20;99.90
12268;DHT22;6196;48.398;11.736;2023-05-07T01:40:31;11.10;99.90
12268;DHT22;6196;48.398;11.736;2023-05-07T01:42:58;11.10;99.90
12268;DHT22;6196;48.398;11.736;2023-05-07T01:45:25;11.10;99.90
12268;DHT22;6196;48.398;11.736;2023-05-07T01:47:53;11.10;99.90
12268;DHT22;6196;48.398;11.736;2023-05-07T01:50:20;11.20;99.90
12268;DHT22;6196;48.398;11.736;2023-05-07T01:52:50;11.20;99.90
12268;DHT22;6196;48.398;11.736;2023-05-07T01:55:17;11.20;99.90
12268;DHT22;6196;48.398;11.736;2023-05-07T01:57:44;11.20;99.90
12268;DHT22;6196;48.398;11.736;2023-05-07T02:00:12;11.20;99.90
12268;DHT22;6196;48.398;11.736;2023-05-07T02:02:39;11.20;99.90
12268;DHT22;6196;48.398;11.736;2023-05-07T02:05:06;11.20;99.90
12268;DHT22;6196;48.398;11.736;2023-05-07T02:07:34;11.10;99.90
12268;DHT22;6196;48.398;11.736;2023-05-07T02:10:01;11.10;99.90
12268;DHT22;6196;48.398;11.736;2023-05-07T02:12:27;11.10;99.90
12268;DHT22;6196;48.398;11.736;2023-05-07T02:14:54;11.10;99.90
12268;DHT22;6196;48.398;11.736;2023-05-07T02:17:21;11.10;99.90
12268;DHT22;6196;48.398;11.736;2023-05-07T02:19:48;11.10;99.90
12268;DHT22;6196;48.398;11.736;2023-05-07T02:22:15;11.10;99.90
12268;DHT22;6196;48.398;11.736;2023-05-07T02:24:42;11.10;99.90
12268;DHT22;6196;48.398;11.736;2023-05-07T02:27:09;11.10;99.90
12268;DHT22;6196;48.398;11.736;2023-05-07T02:29:35;11.10;99.90
12268;DHT22;6196;48.398;11.736;2023-05-07T02:32:02;11.00;99.90
12268;DHT22;6196;48.398;11.736;2023-05-07T02:34:29;11.00;99.90
12268;DHT22;6196;48.398;11.736;2023-05-07T02:36:56;11.00;99.90
12268;DHT22;6196;48.398;11.736;2023-05-07T02:39:23;11.00;99.90
12268;DHT22;6196;48.398;11.736;2023-05-07T02:41:50;11.00;99.90
12268;DHT22;6196;48.398;11.736;2023-05-07T02:44:17;11.00;99.90
12268;DHT22;6196;48.398;11.736;2023-05-07T02:46:43;11.00;99.90
12268;DHT22;6196;48.398;11.736;2023-05-07T02:49:10;11.00;99.90
12268;DHT22;6196;48.398;11.736;2023-05-07T02:51:37;11.00;99.90
12268;DHT22;6196;48.398;11.736;2023-05-07T02:54:04;11.10;99.90
12268;DHT22;6196;48.398;11.736;2023-05-07T02:56:31;11.10;99.90
12268;DHT22;6196;48.398;11.736;2023-05-07T02:58:58;11.10;99.90
12268;DHT22;6196;48.398;11.736;2023-05-07T03:01:25;11.10;99.90
12268;DHT22;6196;48.398;11.736;2023-05-07T03:03:51;11.10;99.90
12268;DHT22;6196;48.398;11.736;2023-05-07T03:06:18;11.20;99.90
12268;DHT22;6196;48.398;11.736;2023-05-07T03:08:45;11.00;99.90
12268;DHT22;6196;48.398;11.736;2023-05-07T03:11:12;11.00;99.90
12268;DHT22;6196;48.398;11.736;2023-05-07T03:13:39;10.80;99.90
12268;DHT22;6196;48.398;11.736;2023-05-07T03:16:06;10.80;99.90
12268;DHT22;6196;48.398;11.736;2023-05-07T03:18:33;10.80;99.90
12268;DHT22;6196;48.398;11.736;2023-05-07T03:21:00;10.80;99.90
12268;DHT22;6196;48.398;11.736;2023-05-07T03:23:27;10.70;99.90
12268;DHT22;6196;48.398;11.736;2023-05-07T03:25:54;10.60;99.90
12268;DHT22;6196;48.398;11.736;2023-05-07T03:28:21;10.60;99.90
12268;DHT22;6196;48.398;11.736;2023-05-07T03:30:47;10.60;99.90
12268;DHT22;6196;48.398;11.736;2023-05-07T03:33:14;10.60;99.90
12268;DHT22;6196;48.398;11.736;2023-05-07T03:35:42;10.60;99.90
12268;DHT22;6196;48.398;11.736;2023-05-07T03:38:08;10.70;99.90
12268;DHT22;6196;48.398;11.736;2023-05-07T03:40:35;10.60;99.90
12268;DHT22;6196;48.398;11.736;2023-05-07T03:43:02;10.60;99.90
12268;DHT22;6196;48.398;11.736;2023-05-07T03:45:29;10.60;99.90
12268;DHT22;6196;48.398;11.736;2023-05-07T03:47:56;10.70;99.90
12268;DHT22;6196;48.398;11.736;2023-05-07T03:50:23;10.60;99.90
12268;DHT22;6196;48.398;11.736;2023-05-07T03:52:49;10.60;99.90
12268;DHT22;6196;48.398;11.736;2023-05-07T03:55:16;10.60;99.90
12268;DHT22;6196;48.398;11.736;2023-05-07T03:57:43;10.60;99.90
12268;DHT22;6196;48.398;11.736;2023-05-07T04:00:10;10.60;99.90
12268;DHT22;6196;48.398;11.736;2023-05-07T04:02:38;10.60;99.90
12268;DHT22;6196;48.398;11.736;2023-05-07T04:05:06;10.60;99.90
12268;DHT22;6196;48.398;11.736;2023-05-07T04:07:33;10.60;99.90
12268;DHT22;6196;48.398;11.736;2023-05-07T04:10:00;10.60;99.90
12268;DHT22;6196;48.398;11.736;2023-05-07T04:12:27;10.60;99.90
12268;DHT22;6196;48.398;11.736;2023-05-07T04:14:54;10.60;99.90
12268;DHT22;6196;48.398;11.736;2023-05-07T04:17:21;10.70;99.90
12268;DHT22;6196;48.398;11.736;2023-05-07T04:19:48;10.70;99.90
12268;DHT22;6196;48.398;11.736;2023-05-07T04:22:15;10.70;99.90
12268;DHT22;6196;48.398;11.736;2023-05-07T04:24:42;10.70;99.90
12268;DHT22;6196;48.398;11.736;2023-05-07T04:27:09;10.70;99.90
12268;DHT22;6196;48.398;11.736;2023-05-07T04:29:35;10.80;99.90
12268;DHT22;6196;48.398;11.736;2023-05-07T04:32:02;10.90;99.90
12268;DHT22;6196;48.398;11.736;2023-05-07T04:34:29;10.90;99.90
12268;DHT22;6196;48.398;11.736;2023-05-07T04:36:58;10.90;99.90
12268;DHT22;6196;48.398;11.736;2023-05-07T04:39:25;11.00;99.90
12268;DHT22;6196;48.398;11.736;2023-05-07T04:41:52;11.00;99.90
12268;DHT22;6196;48.398;11.736;2023-05-07T04:44:19;11.10;99.90
12268;DHT22;6196;48.398;11.736;2023-05-07T04:46:46;11.10;99.90
12268;DHT22;6196;48.398;11.736;2023-05-07T04:49:13;11.00;99.90
12268;DHT22;6196;48.398;11.736;2023-05-07T04:51:40;10.90;99.90
12268;DHT22;6196;48.398;11.736;2023-05-07T04:54:10;10.80;99.90
12268;DHT22;6196;48.398;11.736;2023-05-07T04:56:37;11.10;99.90
12268;DHT22;6196;48.398;11.736;2023-05-07T04:59:04;11.10;99.90
12268;DHT22;6196;48.398;11.736;2023-05-07T05:01:31;11.20;99.90
12268;DHT22;6196;48.398;11.736;2023-05-07T05:03:58;11.20;99.90
12268;DHT22;6196;48.398;11.736;2023-05-07T05:06:26;11.40;99.90
12268;DHT22;6196;48.398;11.736;2023-05-07T05:08:53;11.50;99.90
12268;DHT22;6196;48.398;11.736;2023-05-07T05:11:20;11.80;99.90
12268;DHT22;6196;48.398;11.736;2023-05-07T05:13:47;11.90;99.90
12268;DHT22;6196;48.398;11.736;2023-05-07T05:16:16;12.10;99.90
12268;DHT22;6196;48.398;11.736;2023-05-07T05:18:43;12.30;99.90
12268;DHT22;6196;48.398;11.736;2023-05-07T05:21:10;12.50;99.90
12268;DHT22;6196;48.398;11.736;2023-05-07T05:23:36;12.50;99.90
12268;DHT22;6196;48.398;11.736;2023-05-07T05:26:03;12.60;99.90
12268;DHT22;6196;48.398;11.736;2023-05-07T05:28:30;12.80;99.90
12268;DHT22;6196;48.398;11.736;2023-05-07T05:30:57;13.00;99.90
12268;DHT22;6196;48.398;11.736;2023-05-07T05:33:24;13.10;99.90
12268;DHT22;6196;48.398;11.736;2023-05-07T05:35:53;13.30;99.90
12268;DHT22;6196;48.398;11.736;2023-05-07T05:38:20;13.40;99.90
12268;DHT22;6196;48.398;11.736;2023-05-07T05:40:47;13.50;99.90
12268;DHT22;6196;48.398;11.736;2023-05-07T05:43:14;13.60;99.90
12268;DHT22;6196;48.398;11.736;2023-05-07T05:45:41;13.60;99.90
12268;DHT22;6196;48.398;11.736;2023-05-07T05:48:08;13.80;99.90
12268;DHT22;6196;48.398;11.736;2023-05-07T05:50:35;13.80;99.90
12268;DHT22;6196;48.398;11.736;2023-05-07T05:53:03;13.90;99.90
12268;DHT22;6196;48.398;11.736;2023-05-07T05:55:30;14.10;99.90
12268;DHT22;6196;48.398;11.736;2023-05-07T05:58:00;14.40;99.90
12268;DHT22;6196;48.398;11.736;2023-05-07T06:00:27;14.60;99.90
12268;DHT22;6196;48.398;11.736;2023-05-07T06:02:54;14.90;99.90
12268;DHT22;6196;48.398;11.736;2023-05-07T06:05:21;15.00;99.90
12268;DHT22;6196;48.398;11.736;2023-05-07T06:07:50;15.20;99.90
12268;DHT22;6196;48.398;11.736;2023-05-07T06:10:17;15.40;99.90
12268;DHT22;6196;48.398;11.736;2023-05-07T06:12:44;15.60;99.90
12268;DHT22;6196;48.398;11.736;2023-05-07T06:15:11;15.90;99.90
12268;DHT22;6196;48.398;11.736;2023-05-07T06:17:38;16.20;99.90
12268;DHT22;6196;48.398;11.736;2023-05-07T06:20:05;16.50;99.90
12268;DHT22;6196;48.398;11.736;2023-05-07T06:22:33;16.90;99.90
12268;DHT22;6196;48.398;11.736;2023-05-07T06:25:00;17.00;99.90
12268;DHT22;6196;48.398;11.736;2023-05-07T06:27:26;17.10;99.90
12268;DHT22;6196;48.398;11.736;2023-05-07T06:29:54;17.30;99.90
12268;DHT22;6196;48.398;11.736;2023-05-07T06:32:21;17.50;99.90
12268;DHT22;6196;48.398;11.736;2023-05-07T06:34:48;17.60;99.90
12268;DHT22;6196;48.398;11.736;2023-05-07T06:37:15;17.80;99.90
12268;DHT22;6196;48.398;11.736;2023-05-07T06:39:42;17.80;99.90
12268;DHT22;6196;48.398;11.736;2023-05-07T06:42:09;17.90;99.90
12268;DHT22;6196;48.398;11.736;2023-05-07T06:44:35;18.10;99.90
12268;DHT22;6196;48.398;11.736;2023-05-07T06:47:02;18.40;99.90
12268;DHT22;6196;48.398;11.736;2023-05-07T06:49:29;18.60;99.90
12268;DHT22;6196;48.398;11.736;2023-05-07T06:51:56;18.60;99.90
12268;DHT22;6196;48.398;11.736;2023-05-07T06:54:23;18.60;99.90
12268;DHT22;6196;48.398;11.736;2023-05-07T06:56:50;18.90;99.90
12268;DHT22;6196;48.398;11.736;2023-05-07T06:59:17;19.00;99.90
12268;DHT22;6196;48.398;11.736;2023-05-07T07:01:45;19.00;99.90
12268;DHT22;6196;48.398;11.736;2023-05-07T07:04:12;19.00;99.90
12268;DHT22;6196;48.398;11.736;2023-05-07T07:06:39;19.00;99.90
12268;DHT22;6196;48.398;11.736;2023-05-07T07:09:06;19.30;99.90
12268;DHT22;6196;48.398;11.736;2023-05-07T07:11:33;19.50;99.90
12268;DHT22;6196;48.398;11.736;2023-05-07T07:14:00;19.60;99.90
12268;DHT22;6196;48.398;11.736;2023-05-07T07:16:27;19.70;99.90
12268;DHT22;6196;48.398;11.736;2023-05-07T07:18:54;20.10;99.90
12268;DHT22;6196;48.398;11.736;2023-05-07T07:21:20;20.10;99.90
12268;DHT22;6196;48.398;11.736;2023-05-07T07:23:47;19.90;99.90
12268;DHT22;6196;48.398;11.736;2023-05-07T07:26:14;20.00;99.90
12268;DHT22;6196;48.398;11.736;2023-05-07T07:28:45;20.00;99.90
12268;DHT22;6196;48.398;11.736;2023-05-07T07:31:12;20.00;99.90
12268;DHT22;6196;48.398;11.736;2023-05-07T07:33:40;20.00;99.90
12268;DHT22;6196;48.398;11.736;2023-05-07T07:36:07;20.10;99.90
12268;DHT22;6196;48.398;11.736;2023-05-07T07:38:34;20.30;99.90
12268;DHT22;6196;48.398;11.736;2023-05-07T07:41:01;20.60;99.90
12268;DHT22;6196;48.398;11.736;2023-05-07T07:43:28;20.50;99.90
12268;DHT22;6196;48.398;11.736;2023-05-07T07:45:55;20.50;99.90
12268;DHT22;6196;48.398;11.736;2023-05-07T07:48:22;20.50;99.90
12268;DHT22;6196;48.398;11.736;2023-05-07T07:50:50;20.60;99.90
12268;DHT22;6196;48.398;11.736;2023-05-07T07:53:18;20.80;99.90
12268;DHT22;6196;48.398;11.736;2023-05-07T07:55:45;20.70;99.90
12268;DHT22;6196;48.398;11.736;2023-05-07T07:58:12;21.10;99.90
12268;DHT22;6196;48.398;11.736;2023-05-07T08:00:39;21.30;99.90
12268;DHT22;6196;48.398;11.736;2023-05-07T08:03:08;21.10;99.90
12268;DHT22;6196;48.398;11.736;2023-05-07T08:05:36;20.90;99.90
12268;DHT22;6196;48.398;11.736;2023-05-07T08:08:03;21.00;99.90
12268;DHT22;6196;48.398;11.736;2023-05-07T08:10:30;21.30;99.90
12268;DHT22;6196;48.398;11.736;2023-05-07T08:13:01;21.60;99.90
12268;DHT22;6196;48.398;11.736;2023-05-07T08:15:30;21.70;99.90
12268;DHT22;6196;48.398;11.736;2023-05-07T08:17:58;21.80;99.90
12268;DHT22;6196;48.398;11.736;2023-05-07T08:20:27;21.70;99.90
12268;DHT22;6196;48.398;11.736;2023-05-07T08:22:55;22.00;99.90
12268;DHT22;6196;48.398;11.736;2023-05-07T08:25:22;22.20;99.90
12268;DHT22;6196;48.398;11.736;2023-05-07T08:27:48;22.50;99.90
12268;DHT22;6196;48.398;11.736;2023-05-07T08:30:15;22.60;99.90
12268;DHT22;6196;48.398;11.736;2023-05-07T08:32:42;22.60;99.90
12268;DHT22;6196;48.398;11.736;2023-05-07T08:35:09;22.50;99.90
12268;DHT22;6196;48.398;11.736;2023-05-07T08:37:36;22.20;99.90
12268;DHT22;6196;48.398;11.736;2023-05-07T08:40:03;22.30;99.90
12268;DHT22;6196;48.398;11.736;2023-05-07T08:42:37;22.30;99.90
12268;DHT22;6196;48.398;11.736;2023-05-07T08:45:09;22.40;99.90
12268;DHT22;6196;48.398;11.736;2023-05-07T08:47:58;22.50;99.90
12268;DHT22;6196;48.398;11.736;2023-05-07T08:50:26;22.20;99.90
12268;DHT22;6196;48.398;11.736;2023-05-07T08:52:54;22.30;99.90
12268;DHT22;6196;48.398;11.736;2023-05-07T08:55:23;22.40;99.90
12268;DHT22;6196;48.398;11.736;2023-05-07T08:57:50;22.50;99.90
12268;DHT22;6196;48.398;11.736;2023-05-07T09:00:19;23.00;99.90
12268;DHT22;6196;48.398;11.736;2023-05-07T09:02:46;23.10;99.90
12268;DHT22;6196;48.398;11.736;2023-05-07T09:05:13;23.60;99.90
12268;DHT22;6196;48.398;11.736;2023-05-07T09:07:40;23.70;99.90
12268;DHT22;6196;48.398;11.736;2023-05-07T09:10:07;23.90;99.90
12268;DHT22;6196;48.398;11.736;2023-05-07T09:12:34;24.00;99.90
12268;DHT22;6196;48.398;11.736;2023-05-07T09:15:03;24.20;99.90
12268;DHT22;6196;48.398;11.736;2023-05-07T09:17:30;24.10;99.90
12268;DHT22;6196;48.398;11.736;2023-05-07T09:20:05;24.30;99.90
12268;DHT22;6196;48.398;11.736;2023-05-07T09:22:37;24.30;99.90
12268;DHT22;6196;48.398;11.736;2023-05-07T09:25:06;24.20;99.90
12268;DHT22;6196;48.398;11.736;2023-05-07T09:27:34;24.30;99.90
12268;DHT22;6196;48.398;11.736;2023-05-07T09:30:05;24.10;99.90
12268;DHT22;6196;48.398;11.736;2023-05-07T09:32:36;24.00;99.90
12268;DHT22;6196;48.398;11.736;2023-05-07T09:35:05;23.80;99.90
12268;DHT22;6196;48.398;11.736;2023-05-07T09:37:32;23.70;99.90
12268;DHT22;6196;48.398;11.736;2023-05-07T09:39:59;23.40;99.90
12268;DHT22;6196;48.398;11.736;2023-05-07T09:42:27;23.60;99.90
12268;DHT22;6196;48.398;11.736;2023-05-07T09:44:53;24.00;99.90
12268;DHT22;6196;48.398;11.736;2023-05-07T09:47:23;23.90;99.90
12268;DHT22;6196;48.398;11.736;2023-05-07T09:49:55;23.80;99.90
12268;DHT22;6196;48.398;11.736;2023-05-07T09:52:24;24.10;99.90
12268;DHT22;6196;48.398;11.736;2023-05-07T09:54:51;24.30;99.90
12268;DHT22;6196;48.398;11.736;2023-05-07T09:57:20;24.40;99.90
12268;DHT22;6196;48.398;11.736;2023-05-07T09:59:47;24.50;99.90
12268;DHT22;6196;48.398;11.736;2023-05-07T10:02:17;24.50;99.90
12268;DHT22;6196;48.398;11.736;2023-05-07T10:04:47;24.60;99.90
12268;DHT22;6196;48.398;11.736;2023-05-07T10:07:16;24.70;99.90
12268;DHT22;6196;48.398;11.736;2023-05-07T10:09:43;24.70;99.90
12268;DHT22;6196;48.398;11.736;2023-05-07T10:12:10;25.30;99.90
12268;DHT22;6196;48.398;11.736;2023-05-07T10:14:37;25.20;99.90
12268;DHT22;6196;48.398;11.736;2023-05-07T10:17:05;25.30;99.90
12268;DHT22;6196;48.398;11.736;2023-05-07T10:19:32;25.50;99.90
12268;DHT22;6196;48.398;11.736;2023-05-07T10:22:04;25.70;99.90
12268;DHT22;6196;48.398;11.736;2023-05-07T10:24:33;25.40;99.90
12268;DHT22;6196;48.398;11.736;2023-05-07T10:27:04;25.30;99.90
12268;DHT22;6196;48.398;11.736;2023-05-07T10:32:49;24.90;99.90
12268;DHT22;6196;48.398;11.736;2023-05-07T10:35:23;25.40;99.90
12268;DHT22;6196;48.398;11.736;2023-05-07T10:37:53;25.40;99.90
12268;DHT22;6196;48.398;11.736;2023-05-07T10:40:21;25.10;99.90
12268;DHT22;6196;48.398;11.736;2023-05-07T10:43:02;25.00;99.90
12268;DHT22;6196;48.398;11.736;2023-05-07T10:45:35;25.10;99.90
12268;DHT22;6196;48.398;11.736;2023-05-07T10:48:15;25.60;99.90
12268;DHT22;6196;48.398;11.736;2023-05-07T10:51:18;25.60;99.90
12268;DHT22;6196;48.398;11.736;2023-05-07T10:53:47;24.90;99.90
12268;DHT22;6196;48.398;11.736;2023-05-07T10:58:43;25.00;99.90
12268;DHT22;6196;48.398;11.736;2023-05-07T11:01:11;24.90;99.90
12268;DHT22;6196;48.398;11.736;2023-05-07T11:04:12;24.90;99.90
12268;DHT22;6196;48.398;11.736;2023-05-07T11:06:42;24.70;99.90
12268;DHT22;6196;48.398;11.736;2023-05-07T11:15:09;26.10;99.90
12268;DHT22;6196;48.398;11.736;2023-05-07T11:17:54;26.30;99.90
12268;DHT22;6196;48.398;11.736;2023-05-07T11:20:44;26.00;99.90
12268;DHT22;6196;48.398;11.736;2023-05-07T11:26:08;25.50;99.90
12268;DHT22;6196;48.398;11.736;2023-05-07T11:28:40;25.50;99.90
12268;DHT22;6196;48.398;11.736;2023-05-07T11:31:08;25.40;99.90
12268;DHT22;6196;48.398;11.736;2023-05-07T11:33:37;25.30;99.90
12268;DHT22;6196;48.398;11.736;2023-05-07T11:36:05;25.60;99.90
12268;DHT22;6196;48.398;11.736;2023-05-07T11:38:36;25.60;99.90
12268;DHT22;6196;48.398;11.736;2023-05-07T11:41:03;25.70;99.90
12268;DHT22;6196;48.398;11.736;2023-05-07T11:43:34;25.70;99.90
12268;DHT22;6196;48.398;11.736;2023-05-07T11:46:12;25.70;99.90
12268;DHT22;6196;48.398;11.736;2023-05-07T11:48:40;25.70;99.90
12268;DHT22;6196;48.398;11.736;2023-05-07T11:51:08;25.80;99.90
12268;DHT22;6196;48.398;11.736;2023-05-07T11:53:41;25.60;99.90
12268;DHT22;6196;48.398;11.736;2023-05-07T11:56:11;25.10;99.90
12268;DHT22;6196;48.398;11.736;2023-05-07T11:58:42;25.20;99.90
12268;DHT22;6196;48.398;11.736;2023-05-07T12:01:11;25.90;99.90
12268;DHT22;6196;48.398;11.736;2023-05-07T12:03:43;25.80;99.90
12268;DHT22;6196;48.398;11.736;2023-05-07T12:06:16;25.60;99.90
12268;DHT22;6196;48.398;11.736;2023-05-07T12:08:44;25.60;99.90
12268;DHT22;6196;48.398;11.736;2023-05-07T12:11:16;25.40;99.90
12268;DHT22;6196;48.398;11.736;2023-05-07T12:13:48;25.20;99.90
12268;DHT22;6196;48.398;11.736;2023-05-07T12:16:15;25.30;99.90
12268;DHT22;6196;48.398;11.736;2023-05-07T12:18:42;25.10;99.90
12268;DHT22;6196;48.398;11.736;2023-05-07T12:21:10;25.10;99.90
12268;DHT22;6196;48.398;11.736;2023-05-07T12:23:37;25.30;99.90
12268;DHT22;6196;48.398;11.736;2023-05-07T12:26:04;25.60;99.90
12268;DHT22;6196;48.398;11.736;2023-05-07T12:28:37;26.10;99.90
12268;DHT22;6196;48.398;11.736;2023-05-07T12:31:05;26.20;99.90
12268;DHT22;6196;48.398;11.736;2023-05-07T12:33:34;26.40;99.90
12268;DHT22;6196;48.398;11.736;2023-05-07T12:36:05;26.50;99.90
12268;DHT22;6196;48.398;11.736;2023-05-07T12:38:38;26.70;99.90
12268;DHT22;6196;48.398;11.736;2023-05-07T12:41:08;26.90;99.90
12268;DHT22;6196;48.398;11.736;2023-05-07T12:43:36;27.20;99.90
12268;DHT22;6196;48.398;11.736;2023-05-07T12:46:06;27.40;99.60
12268;DHT22;6196;48.398;11.736;2023-05-07T12:48:36;27.70;99.90
12268;DHT22;6196;48.398;11.736;2023-05-07T12:51:05;27.70;96.90
12268;DHT22;6196;48.398;11.736;2023-05-07T12:53:32;27.50;97.40
12268;DHT22;6196;48.398;11.736;2023-05-07T12:56:00;27.50;98.20
12268;DHT22;6196;48.398;11.736;2023-05-07T12:58:33;27.90;97.20
12268;DHT22;6196;48.398;11.736;2023-05-07T13:01:05;27.80;96.70
12268;DHT22;6196;48.398;11.736;2023-05-07T13:03:37;27.70;98.00
12268;DHT22;6196;48.398;11.736;2023-05-07T13:06:07;27.90;96.40
12268;DHT22;6196;48.398;11.736;2023-05-07T13:08:38;27.50;97.20
12268;DHT22;6196;48.398;11.736;2023-05-07T13:11:08;27.50;96.80
12268;DHT22;6196;48.398;11.736;2023-05-07T13:13:37;28.00;97.20
12268;DHT22;6196;48.398;11.736;2023-05-07T13:16:08;28.40;95.40
12268;DHT22;6196;48.398;11.736;2023-05-07T13:18:36;28.40;93.90
12268;DHT22;6196;48.398;11.736;2023-05-07T13:21:04;27.80;93.80
12268;DHT22;6196;48.398;11.736;2023-05-07T13:23:31;27.80;94.50
12268;DHT22;6196;48.398;11.736;2023-05-07T13:25:58;27.70;95.10
12268;DHT22;6196;48.398;11.736;2023-05-07T13:28:26;27.50;96.80
12268;DHT22;6196;48.398;11.736;2023-05-07T13:30:53;27.40;95.30
12268;DHT22;6196;48.398;11.736;2023-05-07T13:33:21;27.70;96.20
12268;DHT22;6196;48.398;11.736;2023-05-07T13:35:48;27.80;97.20
12268;DHT22;6196;48.398;11.736;2023-05-07T13:38:15;27.70;96.50
12268;DHT22;6196;48.398;11.736;2023-05-07T13:40:42;27.60;94.30
12268;DHT22;6196;48.398;11.736;2023-05-07T13:43:09;27.50;96.90
12268;DHT22;6196;48.398;11.736;2023-05-07T13:45:37;27.30;96.30
12268;DHT22;6196;48.398;11.736;2023-05-07T13:48:04;27.40;95.40
12268;DHT22;6196;48.398;11.736;2023-05-07T13:50:31;27.20;94.90
12268;DHT22;6196;48.398;11.736;2023-05-07T13:52:58;26.90;95.50
12268;DHT22;6196;48.398;11.736;2023-05-07T13:55:25;27.00;96.00
12268;DHT22;6196;48.398;11.736;2023-05-07T13:57:59;26.80;95.60
12268;DHT22;6196;48.398;11.736;2023-05-07T14:00:28;26.40;95.70
12268;DHT22;6196;48.398;11.736;2023-05-07T14:02:56;26.40;96.80
12268;DHT22;6196;48.398;11.736;2023-05-07T14:05:24;26.40;96.50
12268;DHT22;6196;48.398;11.736;2023-05-07T14:07:51;26.30;96.70
12268;DHT22;6196;48.398;11.736;2023-05-07T14:10:19;26.20;96.80
12268;DHT22;6196;48.398;11.736;2023-05-07T14:12:46;26.10;96.50
12268;DHT22;6196;48.398;11.736;2023-05-07T14:15:14;26.20;96.10
12268;DHT22;6196;48.398;11.736;2023-05-07T14:17:42;25.70;96.40
12268;DHT22;6196;48.398;11.736;2023-05-07T14:20:09;25.70;95.90
12268;DHT22;6196;48.398;11.736;2023-05-07T14:22:37;25.40;97.10
12268;DHT22;6196;48.398;11.736;2023-05-07T14:25:04;25.30;98.50
12268;DHT22;6196;48.398;11.736;2023-05-07T14:27:33;25.50;97.70
12268;DHT22;6196;48.398;11.736;2023-05-07T14:30:00;25.40;95.90
12268;DHT22;6196;48.398;11.736;2023-05-07T14:32:27;25.20;96.30
12268;DHT22;6196;48.398;11.736;2023-05-07T14:34:53;25.10;96.50
12268;DHT22;6196;48.398;11.736;2023-05-07T14:37:20;24.90;96.40
12268;DHT22;6196;48.398;11.736;2023-05-07T14:39:47;24.80;97.50
12268;DHT22;6196;48.398;11.736;2023-05-07T14:42:17;24.40;99.00
12268;DHT22;6196;48.398;11.736;2023-05-07T14:44:44;24.60;98.00
12268;DHT22;6196;48.398;11.736;2023-05-07T14:47:12;24.40;97.00
12268;DHT22;6196;48.398;11.736;2023-05-07T14:49:39;24.30;97.00
12268;DHT22;6196;48.398;11.736;2023-05-07T14:52:07;24.40;97.50
12268;DHT22;6196;48.398;11.736;2023-05-07T14:54:37;24.50;99.30
12268;DHT22;6196;48.398;11.736;2023-05-07T14:57:05;24.70;99.10
12268;DHT22;6196;48.398;11.736;2023-05-07T14:59:33;24.80;97.60
12268;DHT22;6196;48.398;11.736;2023-05-07T15:02:01;24.70;97.10
12268;DHT22;6196;48.398;11.736;2023-05-07T15:04:31;24.40;97.70
12268;DHT22;6196;48.398;11.736;2023-05-07T15:06:58;24.40;98.00
12268;DHT22;6196;48.398;11.736;2023-05-07T15:09:25;24.20;97.30
12268;DHT22;6196;48.398;11.736;2023-05-07T15:11:52;23.90;97.40
12268;DHT22;6196;48.398;11.736;2023-05-07T15:14:19;23.60;97.30
12268;DHT22;6196;48.398;11.736;2023-05-07T15:16:48;23.40;98.60
12268;DHT22;6196;48.398;11.736;2023-05-07T15:19:16;23.30;98.70
12268;DHT22;6196;48.398;11.736;2023-05-07T15:21:43;23.40;98.60
12268;DHT22;6196;48.398;11.736;2023-05-07T15:24:10;23.40;98.50
12268;DHT22;6196;48.398;11.736;2023-05-07T15:26:37;23.60;97.80
12268;DHT22;6196;48.398;11.736;2023-05-07T15:29:04;23.80;98.70
12268;DHT22;6196;48.398;11.736;2023-05-07T15:31:36;23.90;99.90
12268;DHT22;6196;48.398;11.736;2023-05-07T15:34:04;24.10;98.50
12268;DHT22;6196;48.398;11.736;2023-05-07T15:36:31;24.00;98.90
12268;DHT22;6196;48.398;11.736;2023-05-07T15:38:58;24.10;99.10
12268;DHT22;6196;48.398;11.736;2023-05-07T15:41:25;24.20;99.20
12268;DHT22;6196;48.398;11.736;2023-05-07T15:43:52;23.90;98.70
12268;DHT22;6196;48.398;11.736;2023-05-07T15:46:21;23.60;98.30
12268;DHT22;6196;48.398;11.736;2023-05-07T15:48:54;23.30;98.90
12268;DHT22;6196;48.398;11.736;2023-05-07T15:51:22;23.20;98.70
12268;DHT22;6196;48.398;11.736;2023-05-07T15:53:49;23.10;98.70